Time;durP1;ratioP1;P1;durP2;ratioP2;P2;SDS_P1;SDS_P2;PMS_P1;PMS_P2;Temp;Humidity;BMP_temperature;BMP_pressure;BME280_temperature;BME280_humidity;BME280_pressure;Samples;Min_cycle;Max_cycle;Signal;HPM_P1;HPM_P2
2022/11/12 00:01:59;;;;;;;;;;;9.50;53.50;;;;;;5086429;28;20389;-89
2022/11/12 00:04:24;;;;;;;;;;;9.50;53.90;;;;;;5092258;28;19916;-88
2022/11/12 00:06:50;;;;;;;;;;;9.50;54.10;;;;;;5092548;28;19942;-88
2022/11/12 00:09:16;;;;;;;;;;;9.60;54.20;;;;;;5091668;28;20366;-87
2022/11/12 00:11:41;;;;;;;;;;;9.60;53.90;;;;;;5081371;28;19932;-86
2022/11/12 00:14:07;;;;;;;;;;;9.60;54.10;;;;;;5071397;28;19936;-90
2022/11/12 00:16:32;;;;;;;;;;;9.50;53.90;;;;;;5071619;28;19917;-88
2022/11/12 00:18:58;;;;;;;;;;;9.50;53.50;;;;;;5071197;28;20274;-87
2022/11/12 00:21:24;;;;;;;;;;;9.40;53.00;;;;;;5074856;28;19912;-89
2022/11/12 00:23:49;;;;;;;;;;;9.20;52.70;;;;;;5085277;28;20526;-89
2022/11/12 00:26:15;;;;;;;;;;;9.10;52.60;;;;;;5093893;28;19919;-89
2022/11/12 00:28:41;;;;;;;;;;;9.10;52.80;;;;;;5089969;28;19961;-89
2022/11/12 00:31:10;;;;;;;;;;;9.00;52.90;;;;;;5071493;28;20402;-89
2022/11/12 00:33:38;;;;;;;;;;;8.90;52.80;;;;;;5078899;28;20417;-87
2022/11/12 00:36:04;;;;;;;;;;;8.80;52.90;;;;;;5092243;28;20014;-87
2022/11/12 00:38:29;;;;;;;;;;;8.80;53.00;;;;;;5079454;28;19948;-87
2022/11/12 00:40:58;;;;;;;;;;;8.80;53.10;;;;;;5075449;28;19930;-88
2022/11/12 00:43:23;;;;;;;;;;;8.70;53.30;;;;;;5071778;28;19923;-88
2022/11/12 00:45:52;;;;;;;;;;;8.70;53.20;;;;;;5086444;28;19994;-88
2022/11/12 00:48:21;;;;;;;;;;;8.70;53.00;;;;;;5086070;28;19942;-88
2022/11/12 00:50:46;;;;;;;;;;;8.70;53.10;;;;;;5071053;28;19943;-89
2022/11/12 00:53:12;;;;;;;;;;;8.60;53.00;;;;;;5070743;28;19924;-89
2022/11/12 00:55:37;;;;;;;;;;;8.60;53.00;;;;;;5071587;28;19908;-87
2022/11/12 00:58:03;;;;;;;;;;;8.60;52.90;;;;;;5071474;28;19963;-87
2022/11/12 01:00:28;;;;;;;;;;;8.50;52.80;;;;;;5071592;28;19934;-88
2022/11/12 01:02:57;;;;;;;;;;;8.50;52.70;;;;;;5070430;28;20615;-88
2022/11/12 01:05:26;;;;;;;;;;;8.50;52.70;;;;;;5071831;28;19916;-87
2022/11/12 01:07:54;;;;;;;;;;;8.40;52.80;;;;;;5071782;28;19923;-88
2022/11/12 01:10:20;;;;;;;;;;;8.40;52.70;;;;;;5071016;28;20371;-87
2022/11/12 01:12:45;;;;;;;;;;;8.40;52.60;;;;;;5072613;28;19916;-85
2022/11/12 01:15:11;;;;;;;;;;;8.40;52.60;;;;;;5070741;28;19924;-86
2022/11/12 01:17:37;;;;;;;;;;;8.30;52.50;;;;;;5070347;28;19916;-88
2022/11/12 01:20:03;;;;;;;;;;;8.20;52.50;;;;;;5072199;28;20326;-88
2022/11/12 01:22:28;;;;;;;;;;;8.20;52.50;;;;;;5071435;28;19920;-86
2022/11/12 01:24:54;;;;;;;;;;;8.20;52.50;;;;;;5071120;28;20355;-88
2022/11/12 01:27:20;;;;;;;;;;;8.10;52.50;;;;;;5073381;28;19916;-85
2022/11/12 01:29:46;;;;;;;;;;;8.10;52.40;;;;;;5072037;28;20345;-86
2022/11/12 01:32:11;;;;;;;;;;;8.00;52.40;;;;;;5070063;28;20011;-86
2022/11/12 01:34:37;;;;;;;;;;;8.00;52.40;;;;;;5086692;28;20402;-88
2022/11/12 01:37:02;;;;;;;;;;;8.00;52.40;;;;;;5094169;28;19920;-87
2022/11/12 01:39:28;;;;;;;;;;;7.90;52.40;;;;;;5090505;28;19919;-88
2022/11/12 01:41:53;;;;;;;;;;;7.90;52.40;;;;;;5091073;28;19917;-87
2022/11/12 01:44:20;;;;;;;;;;;7.90;52.40;;;;;;5090157;28;19908;-87
2022/11/12 01:46:58;;;;;;;;;;;7.80;52.40;;;;;;5070104;28;19999;-88
2022/11/12 01:49:27;;;;;;;;;;;7.80;52.50;;;;;;5070086;28;20000;-87
2022/11/12 01:51:54;;;;;;;;;;;7.80;52.50;;;;;;5071279;28;19974;-90
2022/11/12 01:54:21;;;;;;;;;;;7.70;52.50;;;;;;5069851;28;19920;-85
2022/11/12 01:56:47;;;;;;;;;;;7.70;52.70;;;;;;5070561;28;20032;-86
2022/11/12 01:59:21;;;;;;;;;;;7.70;52.80;;;;;;5081851;28;19924;-88
2022/11/12 02:01:47;;;;;;;;;;;7.70;52.80;;;;;;5090582;28;20299;-87
2022/11/12 02:04:13;;;;;;;;;;;7.60;53.30;;;;;;5090294;28;19931;-87
2022/11/12 02:06:38;;;;;;;;;;;7.60;53.30;;;;;;5092346;28;19917;-88
2022/11/12 02:09:04;;;;;;;;;;;7.60;53.10;;;;;;5089691;28;19908;-89
2022/11/12 02:11:30;;;;;;;;;;;7.50;53.20;;;;;;5092656;28;19917;-88
2022/11/12 02:14:02;;;;;;;;;;;7.50;53.40;;;;;;5092343;28;19920;-87
2022/11/12 02:16:32;;;;;;;;;;;7.50;53.30;;;;;;5090047;28;19954;-89
2022/11/12 02:18:58;;;;;;;;;;;7.50;53.20;;;;;;5081236;28;19913;-88
2022/11/12 02:21:24;;;;;;;;;;;7.40;53.50;;;;;;5069946;28;19912;-88
2022/11/12 02:24:22;;;;;;;;;;;7.50;53.60;;;;;;5070080;28;20007;-88
2022/11/12 02:26:50;;;;;;;;;;;7.40;53.40;;;;;;5069213;28;20018;-86
2022/11/12 02:29:15;;;;;;;;;;;7.40;53.30;;;;;;5075218;28;20270;-88
2022/11/12 02:31:41;;;;;;;;;;;7.40;53.30;;;;;;5089261;28;20024;-85
2022/11/12 02:34:07;;;;;;;;;;;7.40;53.20;;;;;;5086069;28;19927;-90
2022/11/12 02:36:32;;;;;;;;;;;7.40;53.20;;;;;;5089448;28;19924;-87
2022/11/12 02:38:58;;;;;;;;;;;7.40;53.20;;;;;;5069941;28;19948;-87
2022/11/12 02:41:24;;;;;;;;;;;7.50;53.10;;;;;;5082131;28;20388;-89
2022/11/12 02:43:50;;;;;;;;;;;7.40;53.10;;;;;;5092399;28;20007;-88
2022/11/12 02:46:16;;;;;;;;;;;7.40;53.00;;;;;;5074782;28;19913;-89
2022/11/12 02:48:42;;;;;;;;;;;7.40;53.00;;;;;;5073978;28;19931;-89
2022/11/12 02:51:07;;;;;;;;;;;7.40;53.10;;;;;;5093326;28;20048;-89
2022/11/12 02:53:33;;;;;;;;;;;7.30;53.10;;;;;;5090756;28;19921;-90
2022/11/12 02:55:59;;;;;;;;;;;7.30;53.00;;;;;;5074912;28;19908;-88
2022/11/12 02:58:25;;;;;;;;;;;7.30;52.90;;;;;;5090908;28;19917;-88
2022/11/12 03:00:51;;;;;;;;;;;7.30;53.00;;;;;;5089632;28;20290;-87
2022/11/12 03:03:16;;;;;;;;;;;7.30;52.90;;;;;;5089590;28;20026;-89
2022/11/12 03:05:42;;;;;;;;;;;7.30;52.90;;;;;;5074323;28;19931;-86
2022/11/12 03:08:08;;;;;;;;;;;7.20;53.10;;;;;;5089838;28;19921;-88
2022/11/12 03:10:38;;;;;;;;;;;7.30;53.20;;;;;;5089687;28;19913;-88
2022/11/12 03:13:04;;;;;;;;;;;7.30;53.10;;;;;;5089157;28;19970;-88
2022/11/12 03:15:30;;;;;;;;;;;7.30;53.10;;;;;;5090585;28;20424;-86
2022/11/12 03:17:56;;;;;;;;;;;7.20;53.00;;;;;;5073880;28;20019;-89
2022/11/12 03:20:22;;;;;;;;;;;7.20;52.90;;;;;;5091432;28;19939;-87
2022/11/12 03:23:14;;;;;;;;;;;7.20;53.00;;;;;;5089146;28;19916;-89
2022/11/12 03:25:39;;;;;;;;;;;7.20;52.90;;;;;;5069961;28;19915;-86
2022/11/12 03:28:06;;;;;;;;;;;7.10;53.00;;;;;;5074407;28;19916;-88
2022/11/12 03:30:34;;;;;;;;;;;7.20;53.00;;;;;;5089450;28;19913;-89
2022/11/12 03:32:59;;;;;;;;;;;7.10;53.00;;;;;;5076045;28;19923;-88
2022/11/12 03:35:25;;;;;;;;;;;7.10;53.00;;;;;;5094357;28;20409;-87
2022/11/12 03:37:51;;;;;;;;;;;7.00;53.10;;;;;;5094656;28;19981;-86
2022/11/12 03:40:17;;;;;;;;;;;7.10;53.10;;;;;;5095557;28;20386;-87
2022/11/12 03:42:46;;;;;;;;;;;7.10;53.30;;;;;;5092831;28;19916;-89
2022/11/12 03:45:12;;;;;;;;;;;7.10;53.30;;;;;;5083791;28;19909;-89
2022/11/12 03:47:42;;;;;;;;;;;7.10;53.30;;;;;;5074403;28;19916;-87
2022/11/12 03:50:09;;;;;;;;;;;7.10;53.50;;;;;;5081105;28;20434;-87
2022/11/12 03:52:34;;;;;;;;;;;7.10;53.60;;;;;;5093304;28;20333;-89
2022/11/12 03:55:00;;;;;;;;;;;7.20;53.70;;;;;;5091666;28;19927;-89
2022/11/12 03:57:25;;;;;;;;;;;7.20;53.60;;;;;;5096625;28;20082;-89
2022/11/12 03:59:51;;;;;;;;;;;7.20;53.50;;;;;;5092629;28;20340;-87
2022/11/12 04:02:17;;;;;;;;;;;7.20;53.40;;;;;;5071792;28;20434;-87
2022/11/12 04:10:21;;;;;;;;;;;7.20;53.50;;;;;;5072362;28;20695;-87
2022/11/12 04:15:31;;;;;;;;;;;7.10;53.50;;;;;;5073420;28;19923;-88
2022/11/12 04:23:25;;;;;;;;;;;6.90;53.80;;;;;;5073343;28;19927;-88
2022/11/12 04:28:35;;;;;;;;;;;6.80;54.10;;;;;;5076153;28;19924;-89
2022/11/12 04:31:01;;;;;;;;;;;6.80;54.20;;;;;;5071286;28;19917;-88
2022/11/12 04:33:26;;;;;;;;;;;6.80;54.50;;;;;;5076719;28;19966;-88
2022/11/12 04:35:52;;;;;;;;;;;6.70;54.70;;;;;;5091819;28;19982;-87
2022/11/12 04:38:18;;;;;;;;;;;6.70;54.80;;;;;;5091198;28;20050;-84
2022/11/12 04:46:11;;;;;;;;;;;6.70;55.70;;;;;;5076359;28;19966;-88
2022/11/12 04:48:37;;;;;;;;;;;6.70;56.00;;;;;;5074208;28;19916;-85
2022/11/12 04:52:03;;;;;;;;;;;6.80;55.90;;;;;;5092269;28;20343;-89
2022/11/12 04:53:52;;;;;;;;;;;6.80;56.20;;;;;;5092544;28;20338;-87
2022/11/12 04:56:18;;;;;;;;;;;7.00;56.50;;;;;;5095252;28;19916;-88
2022/11/12 04:58:43;;;;;;;;;;;7.10;56.70;;;;;;5092927;28;19965;-88
2022/11/12 05:01:09;;;;;;;;;;;7.20;56.70;;;;;;5091902;28;19915;-89
2022/11/12 05:03:35;;;;;;;;;;;7.30;56.70;;;;;;5086681;28;19916;-86
2022/11/12 05:06:50;;;;;;;;;;;7.40;56.80;;;;;;5090777;28;19912;-86
2022/11/12 05:08:50;;;;;;;;;;;7.40;57.00;;;;;;5093050;28;19920;-89
2022/11/12 05:11:15;;;;;;;;;;;7.50;57.10;;;;;;5090122;28;19922;-88
2022/11/12 05:13:41;;;;;;;;;;;7.50;56.90;;;;;;5089930;28;19920;-89
2022/11/12 05:16:07;;;;;;;;;;;7.50;56.60;;;;;;5079631;28;19917;-88
2022/11/12 05:18:32;;;;;;;;;;;7.40;56.30;;;;;;5071581;28;19917;-89
2022/11/12 05:22:03;;;;;;;;;;;7.30;56.10;;;;;;5072162;28;19916;-89
2022/11/12 05:23:43;;;;;;;;;;;7.30;56.00;;;;;;5071996;28;19924;-89
2022/11/12 05:26:09;;;;;;;;;;;7.20;56.00;;;;;;5071330;28;19909;-87
2022/11/12 05:28:35;;;;;;;;;;;7.20;56.00;;;;;;5071134;28;20363;-87
2022/11/12 05:31:01;;;;;;;;;;;7.10;56.10;;;;;;5071282;28;19991;-87
2022/11/12 05:33:27;;;;;;;;;;;7.10;56.30;;;;;;5076469;28;19924;-86
2022/11/12 05:35:54;;;;;;;;;;;7.10;56.40;;;;;;5091796;28;19908;-89
2022/11/12 05:38:22;;;;;;;;;;;7.10;56.50;;;;;;5090294;28;20619;-85
2022/11/12 05:40:48;;;;;;;;;;;7.10;56.40;;;;;;5094933;28;19947;-88
2022/11/12 05:43:14;;;;;;;;;;;7.00;56.40;;;;;;5091404;28;20274;-88
2022/11/12 05:45:42;;;;;;;;;;;7.00;56.40;;;;;;5077365;28;20351;-88
2022/11/12 05:48:08;;;;;;;;;;;7.00;56.50;;;;;;5071131;28;19935;-86
2022/11/12 05:50:34;;;;;;;;;;;7.00;56.40;;;;;;5071680;28;19909;-88
2022/11/12 05:53:00;;;;;;;;;;;6.90;56.40;;;;;;5071162;28;19923;-88
2022/11/12 05:55:25;;;;;;;;;;;6.90;56.30;;;;;;5071536;28;20430;-88
2022/11/12 05:57:51;;;;;;;;;;;6.80;56.10;;;;;;5070415;28;19916;-88
2022/11/12 06:00:20;;;;;;;;;;;6.80;56.20;;;;;;5070295;28;19912;-86
2022/11/12 06:02:46;;;;;;;;;;;6.70;56.10;;;;;;5071780;28;20382;-88
2022/11/12 06:05:12;;;;;;;;;;;6.70;56.00;;;;;;5075655;28;19966;-85
2022/11/12 06:07:39;;;;;;;;;;;6.70;56.00;;;;;;5091296;28;19961;-85
2022/11/12 06:10:05;;;;;;;;;;;6.70;56.20;;;;;;5091156;28;19915;-88
2022/11/12 06:12:31;;;;;;;;;;;6.70;56.50;;;;;;5092888;28;19916;-88
2022/11/12 06:14:56;;;;;;;;;;;6.70;56.70;;;;;;5079120;28;19920;-86
2022/11/12 06:17:22;;;;;;;;;;;6.70;57.10;;;;;;5073514;28;19916;-88
2022/11/12 06:19:48;;;;;;;;;;;6.80;57.40;;;;;;5076297;28;19923;-87
2022/11/12 06:22:13;;;;;;;;;;;6.90;57.70;;;;;;5075748;28;19920;-89
2022/11/12 06:24:39;;;;;;;;;;;7.00;57.80;;;;;;5078361;28;20004;-88
2022/11/12 06:27:05;;;;;;;;;;;7.10;57.80;;;;;;5073904;28;19970;-89
2022/11/12 06:29:31;;;;;;;;;;;7.10;57.80;;;;;;5075571;28;19913;-89
2022/11/12 06:31:57;;;;;;;;;;;7.20;57.80;;;;;;5076317;28;19925;-89
2022/11/12 06:34:22;;;;;;;;;;;7.20;57.80;;;;;;5073839;28;19920;-88
2022/11/12 06:36:48;;;;;;;;;;;7.20;57.90;;;;;;5075047;28;19927;-89
2022/11/12 06:39:13;;;;;;;;;;;7.20;57.90;;;;;;5076736;28;20007;-88
2022/11/12 06:41:39;;;;;;;;;;;7.20;57.90;;;;;;5087459;28;20346;-88
2022/11/12 06:44:05;;;;;;;;;;;7.30;57.90;;;;;;5094533;28;19915;-87
2022/11/12 06:46:31;;;;;;;;;;;7.30;58.00;;;;;;5073023;28;19908;-87
2022/11/12 06:48:56;;;;;;;;;;;7.30;58.10;;;;;;5076511;28;20267;-89
2022/11/12 06:51:22;;;;;;;;;;;7.30;58.10;;;;;;5073778;28;19963;-88
2022/11/12 06:53:48;;;;;;;;;;;7.40;58.50;;;;;;5074150;28;19998;-90
2022/11/12 06:56:13;;;;;;;;;;;7.50;59.00;;;;;;5074360;28;19916;-86
2022/11/12 06:58:39;;;;;;;;;;;7.70;59.60;;;;;;5075709;28;19912;-88
2022/11/12 07:01:12;;;;;;;;;;;7.80;59.90;;;;;;5092569;28;20398;-88
2022/11/12 07:03:38;;;;;;;;;;;8.00;59.90;;;;;;5095688;28;19920;-87
2022/11/12 07:06:04;;;;;;;;;;;8.10;59.80;;;;;;5094110;28;20029;-86
2022/11/12 07:08:30;;;;;;;;;;;8.20;59.60;;;;;;5094525;28;19964;-87
2022/11/12 07:10:58;;;;;;;;;;;8.20;59.40;;;;;;5093056;28;19950;-85
2022/11/12 07:13:24;;;;;;;;;;;8.30;59.40;;;;;;5092665;28;20010;-88
2022/11/12 07:15:49;;;;;;;;;;;8.30;59.30;;;;;;5095191;28;20007;-88
2022/11/12 07:18:15;;;;;;;;;;;8.30;59.30;;;;;;5093320;28;20260;-87
2022/11/12 07:20:40;;;;;;;;;;;8.40;59.30;;;;;;5092522;28;19907;-89
2022/11/12 07:23:06;;;;;;;;;;;8.40;59.40;;;;;;5093039;28;20007;-85
2022/11/12 07:25:31;;;;;;;;;;;8.50;59.50;;;;;;5093819;28;20394;-86
2022/11/12 07:27:57;;;;;;;;;;;8.50;59.50;;;;;;5098886;28;19935;-88
2022/11/12 07:30:22;;;;;;;;;;;8.60;59.70;;;;;;5095765;28;19919;-91
2022/11/12 07:32:48;;;;;;;;;;;8.70;59.70;;;;;;5095650;28;19926;-88
2022/11/12 07:35:13;;;;;;;;;;;8.70;59.60;;;;;;5074730;28;19931;-88
2022/11/12 07:37:39;;;;;;;;;;;8.70;59.70;;;;;;5074749;28;20372;-89
2022/11/12 07:40:05;;;;;;;;;;;8.80;59.70;;;;;;5077360;28;20465;-87
2022/11/12 07:42:34;;;;;;;;;;;8.80;59.70;;;;;;5074168;28;19942;-87
2022/11/12 07:45:00;;;;;;;;;;;8.80;59.80;;;;;;5072844;28;19912;-86
2022/11/12 07:47:26;;;;;;;;;;;8.80;59.80;;;;;;5073371;28;19978;-88
2022/11/12 07:49:51;;;;;;;;;;;8.90;59.80;;;;;;5074338;28;20383;-90
2022/11/12 07:52:17;;;;;;;;;;;8.90;59.90;;;;;;5074397;28;19920;-86
2022/11/12 07:54:42;;;;;;;;;;;9.00;60.00;;;;;;5075546;28;19948;-88
2022/11/12 07:57:08;;;;;;;;;;;9.10;60.10;;;;;;5072448;28;19928;-85
2022/11/12 07:59:33;;;;;;;;;;;9.20;60.20;;;;;;5089531;28;19908;-88
2022/11/12 08:01:59;;;;;;;;;;;9.20;60.40;;;;;;5073623;28;19921;-89
2022/11/12 08:04:24;;;;;;;;;;;9.30;60.70;;;;;;5076690;28;19908;-86
2022/11/12 08:06:50;;;;;;;;;;;9.40;61.00;;;;;;5073904;28;19917;-87
2022/11/12 08:09:15;;;;;;;;;;;9.60;61.40;;;;;;5076240;28;19912;-88
2022/11/12 08:11:41;;;;;;;;;;;9.80;61.90;;;;;;5081225;28;19916;-87
2022/11/12 08:14:07;;;;;;;;;;;10.10;62.40;;;;;;5085502;28;20581;-85
2022/11/12 08:16:32;;;;;;;;;;;10.40;63.10;;;;;;5081117;28;19917;-88
2022/11/12 08:18:59;;;;;;;;;;;10.90;63.90;;;;;;5083492;28;19974;-86
2022/11/12 08:21:25;;;;;;;;;;;11.40;64.20;;;;;;5077979;28;19908;-88
2022/11/12 08:23:50;;;;;;;;;;;11.80;64.20;;;;;;5071084;28;19909;-88
2022/11/12 08:26:17;;;;;;;;;;;12.40;64.10;;;;;;5072397;28;19974;-88
2022/11/12 08:28:42;;;;;;;;;;;12.90;63.90;;;;;;5072862;28;20279;-88
2022/11/12 08:31:10;;;;;;;;;;;13.40;63.20;;;;;;5072520;28;19953;-86
2022/11/12 08:33:35;;;;;;;;;;;13.80;62.80;;;;;;5078041;28;19927;-88
2022/11/12 08:36:02;;;;;;;;;;;14.20;62.60;;;;;;5093927;28;19908;-86
2022/11/12 08:38:28;;;;;;;;;;;14.60;62.60;;;;;;5091242;28;19994;-86
2022/11/12 08:40:53;;;;;;;;;;;15.00;62.50;;;;;;5089390;28;19920;-89
2022/11/12 08:43:19;;;;;;;;;;;15.40;62.20;;;;;;5091634;28;19938;-89
2022/11/12 08:45:45;;;;;;;;;;;15.80;61.90;;;;;;5077291;28;20371;-88
2022/11/12 08:48:13;;;;;;;;;;;16.10;61.90;;;;;;5072895;28;19917;-87
2022/11/12 08:50:39;;;;;;;;;;;16.40;61.80;;;;;;5082713;28;19930;-89
2022/11/12 08:53:06;;;;;;;;;;;16.70;62.10;;;;;;5093579;28;19916;-88
2022/11/12 08:55:32;;;;;;;;;;;17.00;62.00;;;;;;5092610;28;19920;-88
2022/11/12 08:58:00;;;;;;;;;;;17.30;62.00;;;;;;5090582;28;19923;-89
2022/11/12 09:00:27;;;;;;;;;;;17.70;61.60;;;;;;5093889;28;19908;-87
2022/11/12 09:02:52;;;;;;;;;;;18.00;61.20;;;;;;5092967;28;19920;-89
2022/11/12 09:05:18;;;;;;;;;;;18.30;60.90;;;;;;5092652;28;19927;-86
2022/11/12 09:07:44;;;;;;;;;;;18.50;60.60;;;;;;5091604;28;19920;-90
2022/11/12 09:10:10;;;;;;;;;;;18.60;59.60;;;;;;5092988;28;19908;-88
2022/11/12 09:12:35;;;;;;;;;;;18.50;58.90;;;;;;5092239;28;19916;-86
2022/11/12 09:15:01;;;;;;;;;;;18.30;58.70;;;;;;5092129;28;19916;-88
2022/11/12 09:17:29;;;;;;;;;;;18.20;58.90;;;;;;5093284;28;19920;-86
2022/11/12 09:19:55;;;;;;;;;;;18.20;59.50;;;;;;5091002;28;20344;-87
2022/11/12 09:22:20;;;;;;;;;;;18.10;59.30;;;;;;5090146;28;19948;-87
2022/11/12 09:24:46;;;;;;;;;;;17.90;58.70;;;;;;5079079;28;20363;-86
2022/11/12 09:27:12;;;;;;;;;;;17.70;58.20;;;;;;5071181;28;19938;-88
2022/11/12 09:29:37;;;;;;;;;;;17.50;57.90;;;;;;5069926;28;19978;-86
2022/11/12 09:32:03;;;;;;;;;;;17.20;57.80;;;;;;5071180;28;20374;-87
2022/11/12 09:34:29;;;;;;;;;;;17.00;57.60;;;;;;5085251;28;19928;-87
2022/11/12 09:36:54;;;;;;;;;;;16.80;57.80;;;;;;5092349;28;20507;-88
2022/11/12 09:39:20;;;;;;;;;;;16.60;57.80;;;;;;5090955;28;19964;-88
2022/11/12 09:41:46;;;;;;;;;;;16.40;58.10;;;;;;5091417;28;19978;-87
2022/11/12 09:44:14;;;;;;;;;;;16.30;58.50;;;;;;5090819;28;20362;-89
2022/11/12 09:46:50;;;;;;;;;;;16.20;58.80;;;;;;5073075;28;20556;-89
2022/11/12 09:49:28;;;;;;;;;;;16.10;59.30;;;;;;5070603;28;19947;-89
2022/11/12 09:51:55;;;;;;;;;;;16.10;59.80;;;;;;5071767;28;19984;-88
2022/11/12 09:54:23;;;;;;;;;;;16.20;60.60;;;;;;5074747;28;19920;-88
2022/11/12 09:56:49;;;;;;;;;;;16.30;61.00;;;;;;5071923;28;19917;-88
2022/11/12 09:59:15;;;;;;;;;;;16.50;61.30;;;;;;5073294;28;20420;-89
2022/11/12 10:01:47;;;;;;;;;;;16.70;61.30;;;;;;5075162;28;19912;-86
2022/11/12 10:04:31;;;;;;;;;;;16.90;61.40;;;;;;5071910;28;20005;-87
2022/11/12 10:07:08;;;;;;;;;;;17.10;61.00;;;;;;5070539;28;19912;-88
2022/11/12 10:09:38;;;;;;;;;;;17.20;60.90;;;;;;5072058;28;19984;-85
2022/11/12 10:12:38;;;;;;;;;;;17.30;60.90;;;;;;5071935;28;19912;-89
2022/11/12 10:18:46;;;;;;;;;;;17.60;60.90;;;;;;5061719;28;19924;-86
2022/11/12 10:21:18;;;;;;;;;;;17.80;60.90;;;;;;5070145;28;20359;-86
2022/11/12 10:23:45;;;;;;;;;;;17.90;60.50;;;;;;5070787;28;19912;-87
2022/11/12 10:26:12;;;;;;;;;;;18.20;60.60;;;;;;5075510;28;20263;-88
2022/11/12 10:28:45;;;;;;;;;;;18.50;60.70;;;;;;5070635;28;19917;-88
2022/11/12 10:31:14;;;;;;;;;;;18.70;60.00;;;;;;5072178;28;19939;-87
2022/11/12 10:33:40;;;;;;;;;;;19.00;59.00;;;;;;5077907;28;19931;-88
2022/11/12 10:36:21;;;;;;;;;;;19.00;57.40;;;;;;5093066;28;19909;-89
2022/11/12 10:38:48;;;;;;;;;;;19.00;57.00;;;;;;5092850;28;19916;-88
2022/11/12 10:41:19;;;;;;;;;;;18.90;57.10;;;;;;5089196;28;19934;-89
2022/11/12 10:43:55;;;;;;;;;;;18.80;56.60;;;;;;5091519;28;19995;-89
2022/11/12 10:46:22;;;;;;;;;;;18.80;56.90;;;;;;5070247;28;19936;-89
2022/11/12 10:48:56;;;;;;;;;;;18.80;56.90;;;;;;5071953;28;19943;-89
2022/11/12 10:51:26;;;;;;;;;;;18.80;56.60;;;;;;5081911;28;19913;-89
2022/11/12 10:53:53;;;;;;;;;;;18.80;57.20;;;;;;5069440;28;19962;-87
2022/11/12 10:56:29;;;;;;;;;;;18.80;57.80;;;;;;5069539;28;19932;-88
2022/11/12 10:59:24;;;;;;;;;;;18.80;57.20;;;;;;5072303;28;20751;-90
2022/11/12 11:01:53;;;;;;;;;;;18.80;57.30;;;;;;5064933;28;20441;-90
2022/11/12 11:04:22;;;;;;;;;;;18.80;56.50;;;;;;5073668;28;19912;-88
2022/11/12 11:06:48;;;;;;;;;;;18.70;56.80;;;;;;5075656;28;19924;-89
2022/11/12 11:09:15;;;;;;;;;;;18.70;56.40;;;;;;5072568;28;20496;-87
2022/11/12 11:11:48;;;;;;;;;;;18.70;56.90;;;;;;5074869;28;20411;-87
2022/11/12 11:14:24;;;;;;;;;;;18.80;57.20;;;;;;5077524;28;19924;-88
2022/11/12 11:16:54;;;;;;;;;;;18.90;57.70;;;;;;5073431;28;19916;-88
2022/11/12 11:19:20;;;;;;;;;;;19.00;56.90;;;;;;5074394;28;20314;-88
2022/11/12 11:21:49;;;;;;;;;;;19.20;57.40;;;;;;5073759;28;20014;-87
2022/11/12 11:24:25;;;;;;;;;;;19.30;57.40;;;;;;5072685;28;19935;-88
2022/11/12 11:26:55;;;;;;;;;;;19.50;57.30;;;;;;5074758;28;19921;-90
2022/11/12 11:29:24;;;;;;;;;;;19.60;55.70;;;;;;5075693;28;20261;-87
2022/11/12 11:32:03;;;;;;;;;;;19.70;54.70;;;;;;5075180;28;19931;-87
2022/11/12 11:34:29;;;;;;;;;;;19.70;53.60;;;;;;5087939;28;19931;-89
2022/11/12 11:37:08;;;;;;;;;;;19.80;54.00;;;;;;5094479;28;19912;-88
2022/11/12 11:39:33;;;;;;;;;;;20.00;54.30;;;;;;5096053;28;20387;-88
2022/11/12 11:42:07;;;;;;;;;;;20.20;54.70;;;;;;5094299;28;20324;-86
2022/11/12 11:44:40;;;;;;;;;;;20.50;54.50;;;;;;5087819;28;19923;-89
2022/11/12 11:47:21;;;;;;;;;;;20.70;53.90;;;;;;5103262;28;20287;-89
2022/11/12 11:49:46;;;;;;;;;;;20.90;53.80;;;;;;5092582;28;19915;-85
2022/11/12 11:52:35;;;;;;;;;;;21.10;51.60;;;;;;5091943;28;19916;-88
2022/11/12 11:55:04;;;;;;;;;;;21.20;50.30;;;;;;5086794;28;19916;-87
2022/11/12 11:57:48;;;;;;;;;;;21.10;48.80;;;;;;5093064;28;19916;-89
2022/11/12 12:00:17;;;;;;;;;;;20.90;49.20;;;;;;5093431;28;19912;-87
2022/11/12 12:02:42;;;;;;;;;;;20.80;49.00;;;;;;5086568;28;20003;-89
2022/11/12 12:05:11;;;;;;;;;;;20.80;49.00;;;;;;5073325;28;19920;-89
2022/11/12 12:07:45;;;;;;;;;;;20.70;48.70;;;;;;5072333;28;20031;-88
2022/11/12 12:10:10;;;;;;;;;;;20.50;49.20;;;;;;5073316;28;19916;-89
2022/11/12 12:12:48;;;;;;;;;;;20.40;49.50;;;;;;5079638;28;19920;-91
2022/11/12 12:15:36;;;;;;;;;;;20.30;49.40;;;;;;5071545;28;19960;-86
2022/11/12 12:18:20;;;;;;;;;;;20.20;49.70;;;;;;5072651;28;19920;-88
2022/11/12 12:21:05;;;;;;;;;;;20.10;50.30;;;;;;5072191;28;20650;-88
2022/11/12 12:23:34;;;;;;;;;;;20.00;51.20;;;;;;5078016;28;19917;-89
2022/11/12 12:26:01;;;;;;;;;;;20.00;49.90;;;;;;5071112;28;20291;-89
2022/11/12 12:28:33;;;;;;;;;;;19.90;51.30;;;;;;5072452;28;19920;-89
2022/11/12 12:31:01;;;;;;;;;;;20.00;52.20;;;;;;5072918;28;19920;-89
2022/11/12 12:33:27;;;;;;;;;;;19.90;51.20;;;;;;5077601;28;20002;-87
2022/11/12 12:36:05;;;;;;;;;;;19.90;51.30;;;;;;5091612;28;20003;-89
2022/11/12 12:38:34;;;;;;;;;;;19.80;51.80;;;;;;5092250;28;20415;-87
2022/11/12 12:41:11;;;;;;;;;;;19.80;51.50;;;;;;5090082;28;19909;-87
2022/11/12 12:43:45;;;;;;;;;;;19.80;50.70;;;;;;5072651;28;19927;-89
2022/11/12 12:46:12;;;;;;;;;;;19.80;51.70;;;;;;5088762;28;19915;-89
2022/11/12 12:48:40;;;;;;;;;;;19.80;51.40;;;;;;5092689;28;19908;-89
2022/11/12 12:51:06;;;;;;;;;;;19.70;50.80;;;;;;5092459;28;19912;-89
2022/11/12 12:53:33;;;;;;;;;;;19.70;50.90;;;;;;5092450;28;20000;-88
2022/11/12 12:56:01;;;;;;;;;;;19.70;50.90;;;;;;5092188;28;20267;-87
2022/11/12 12:58:31;;;;;;;;;;;19.70;51.10;;;;;;5092693;28;20341;-89
2022/11/12 13:01:02;;;;;;;;;;;19.70;51.40;;;;;;5090923;28;19914;-86
2022/11/12 13:03:46;;;;;;;;;;;19.70;51.40;;;;;;5091234;28;20019;-87
2022/11/12 13:06:21;;;;;;;;;;;19.70;51.80;;;;;;5091553;28;19908;-89
2022/11/12 13:08:52;;;;;;;;;;;19.70;51.60;;;;;;5090691;28;19916;-86
2022/11/12 13:12:20;;;;;;;;;;;19.60;51.40;;;;;;5093047;28;19914;-87
2022/11/12 13:14:30;;;;;;;;;;;19.60;51.10;;;;;;5092211;28;19916;-89
2022/11/12 13:16:57;;;;;;;;;;;19.50;51.40;;;;;;5093393;28;19916;-90
2022/11/12 13:19:25;;;;;;;;;;;19.50;51.10;;;;;;5090724;28;19999;-90
2022/11/12 13:22:11;;;;;;;;;;;19.50;51.00;;;;;;5087370;28;19973;-89
2022/11/12 13:24:55;;;;;;;;;;;19.50;50.60;;;;;;5072537;28;19920;-87
2022/11/12 13:27:40;;;;;;;;;;;19.40;50.80;;;;;;5069853;28;19917;-90
2022/11/12 13:30:06;;;;;;;;;;;19.40;51.10;;;;;;5070387;28;19909;-89
2022/11/12 13:32:58;;;;;;;;;;;19.40;51.20;;;;;;5080499;28;19921;-88
2022/11/12 13:35:34;;;;;;;;;;;19.40;51.10;;;;;;5086072;28;19924;-88
2022/11/12 13:38:15;;;;;;;;;;;19.50;51.10;;;;;;5071210;28;19966;-89
2022/11/12 13:40:45;;;;;;;;;;;19.50;51.20;;;;;;5072327;28;19919;-86
2022/11/12 13:43:11;;;;;;;;;;;19.50;50.50;;;;;;5071799;28;19917;-89
2022/11/12 13:45:39;;;;;;;;;;;19.50;50.40;;;;;;5084109;28;20385;-88
2022/11/12 13:48:06;;;;;;;;;;;19.50;49.50;;;;;;5090717;28;19974;-89
2022/11/12 13:50:31;;;;;;;;;;;19.50;49.70;;;;;;5089664;28;19917;-89
2022/11/12 13:52:58;;;;;;;;;;;19.50;49.70;;;;;;5075040;28;19923;-88
2022/11/12 13:55:23;;;;;;;;;;;19.40;49.80;;;;;;5070951;28;20037;-87
2022/11/12 13:57:52;;;;;;;;;;;19.40;49.60;;;;;;5072168;28;20442;-88
2022/11/12 14:00:19;;;;;;;;;;;19.40;49.70;;;;;;5071168;28;19908;-86
2022/11/12 14:02:47;;;;;;;;;;;19.30;49.80;;;;;;5073751;28;20021;-89
2022/11/12 14:05:15;;;;;;;;;;;19.30;49.80;;;;;;5089991;28;20398;-88
2022/11/12 14:07:50;;;;;;;;;;;19.30;49.70;;;;;;5094221;28;19920;-89
2022/11/12 14:10:30;;;;;;;;;;;19.30;49.80;;;;;;5089974;28;19912;-89
2022/11/12 14:13:14;;;;;;;;;;;19.20;49.90;;;;;;5090928;28;19916;-86
2022/11/12 14:15:54;;;;;;;;;;;19.20;50.00;;;;;;5071754;28;20379;-89
2022/11/12 14:18:35;;;;;;;;;;;19.10;50.10;;;;;;5073273;28;19917;-90
2022/11/12 14:21:05;;;;;;;;;;;19.10;50.20;;;;;;5072468;28;19908;-87
2022/11/12 14:23:31;;;;;;;;;;;19.00;50.20;;;;;;5071413;28;19920;-87
2022/11/12 14:25:57;;;;;;;;;;;19.00;50.10;;;;;;5069184;28;19908;-90
2022/11/12 14:28:30;;;;;;;;;;;18.90;50.00;;;;;;5071010;28;19917;-88
2022/11/12 14:30:59;;;;;;;;;;;18.80;50.00;;;;;;5070518;28;19920;-88
2022/11/12 14:33:25;;;;;;;;;;;18.80;50.10;;;;;;5075059;28;19920;-90
2022/11/12 14:35:52;;;;;;;;;;;18.70;50.40;;;;;;5070335;28;19921;-89
2022/11/12 14:38:22;;;;;;;;;;;18.70;50.40;;;;;;5070075;28;19912;-89
2022/11/12 14:40:50;;;;;;;;;;;18.70;50.50;;;;;;5075734;28;19912;-88
2022/11/12 14:43:21;;;;;;;;;;;18.70;50.60;;;;;;5078898;28;19917;-89
2022/11/12 14:45:48;;;;;;;;;;;18.70;50.60;;;;;;5087087;28;19916;-90
2022/11/12 14:48:14;;;;;;;;;;;18.60;50.60;;;;;;5089637;28;20006;-89
2022/11/12 14:50:40;;;;;;;;;;;18.60;50.60;;;;;;5074337;28;19912;-89
2022/11/12 14:53:12;;;;;;;;;;;18.50;50.40;;;;;;5090744;28;20472;-89
2022/11/12 14:55:40;;;;;;;;;;;18.40;50.30;;;;;;5095279;28;20194;-89
2022/11/12 14:58:06;;;;;;;;;;;18.30;50.40;;;;;;5081744;28;19963;-89